Norwegian Epic — C6XP7 — position and weather

sailwx.info

Track history (hours):
 
Tides and Currents Weather Stations Pressure Air Temp Water Temp Dewpoint Dewpoint Depression Visibility Wind Speed Wind Dir Waves Ship Positions

Norwegian Epic

Last reported at 2017-Feb-20 22:04 UTC. Time now 2017-Feb-24 08:20 UTC.
Position N 20°38' W 086°55'.

Length 329 m; draft 9.2 m.

Type: Passenger vessel. MMSI: 311018500.

Date/timePositionNaut miles runAvg speedWind from/ knotsBaromVisibWave heightAir tempDewpointWater temp
2017-Feb-20 22:04N 20°38' W 086°55'1018.8
2017-Feb-20 21:34N 20°30' W 086°59'1 0.6
2017-Feb-20 20:32N 20°29' W 086°59'0 0.0
2017-Feb-20 19:32N 20°29' W 086°59'0 0.0
2017-Feb-20 18:33N 20°29' W 086°59'0 0.0
2017-Feb-20 17:31N 20°29' W 086°59'0 0.0
2017-Feb-20 16:31N 20°29' W 086°59'0 0.0
2017-Feb-20 15:32N 20°29' W 086°59'0 0.0
2017-Feb-20 14:32N 20°29' W 086°59'0 0.0
2017-Feb-20 13:33N 20°29' W 086°59'0 0.0
2017-Feb-20 12:34N 20°29' W 086°59'2 2.5
2017-Feb-20 11:34N 20°31' W 086°58'47118.5
2017-Feb-19 10:05N 25°11' W 080°06'1019.2
2017-Feb-19 09:33N 25°20' W 080°02'1919.3
2017-Feb-19 08:33N 25°39' W 079°59'1919.3
2017-Feb-19 07:33N 25°58' W 079°57'1918.7
2017-Feb-19 06:33N 26°17' W 079°56'1818.2
2017-Feb-19 05:33N 26°35' W 079°54'1616.0
2017-Feb-19 04:33N 26°51' W 079°54'1515.2
2017-Feb-19 03:33N 27°06' W 079°55'6817.0
2017-Feb-18 23:33N 28°11' W 080°19'1615.7
2017-Feb-18 22:33N 28°22' W 080°32'  
2017-Feb-15 20:33N 18°47' W 064°55'2120.8
2017-Feb-15 19:33N 18°35' W 064°37'1111.2
2017-Feb-15 18:33N 18°24' W 064°34'2 0.3
2017-Feb-15 10:28N 18°25' W 064°36'5 5.3
2017-Feb-15 09:33N 18°22' W 064°32'9 9.3
2017-Feb-15 08:33N 18°14' W 064°27'18 2.5
2017-Feb-15 01:25N 18°02' W 064°41'7 7.6
2017-Feb-15 00:33N 18°01' W 064°47'8 8.1
2017-Feb-14 23:32N 18°07' W 064°52'10 9.5
2017-Feb-14 22:32N 18°17' W 064°55'  
Track history (hours):
 
Tides and Currents Weather Stations Pressure Air Temp Water Temp Dewpoint Dewpoint Depression Visibility Wind Speed Wind Dir Waves Ship Positions

Norwegian Epic

Last reported at 2017-Feb-20 22:04 UTC. Time now 2017-Feb-24 08:20 UTC.
Position N 20°38' W 086°55'.

Length 329 m; draft 9.2 m.

Type: Passenger vessel. MMSI: 311018500.

Date/timePositionNaut miles runAvg speedWind from/ knotsBaromVisibWave heightAir tempDewpointWater temp
2017-Feb-20 22:04N 20°38' W 086°55'1018.8
2017-Feb-20 21:34N 20°30' W 086°59'1 0.6
2017-Feb-20 20:32N 20°29' W 086°59'0 0.0
2017-Feb-20 19:32N 20°29' W 086°59'0 0.0
2017-Feb-20 18:33N 20°29' W 086°59'0 0.0
2017-Feb-20 17:31N 20°29' W 086°59'0 0.0
2017-Feb-20 16:31N 20°29' W 086°59'0 0.0
2017-Feb-20 15:32N 20°29' W 086°59'0 0.0
2017-Feb-20 14:32N 20°29' W 086°59'0 0.0
2017-Feb-20 13:33N 20°29' W 086°59'0 0.0
2017-Feb-20 12:34N 20°29' W 086°59'2 2.5
2017-Feb-20 11:34N 20°31' W 086°58'47118.5
2017-Feb-19 10:05N 25°11' W 080°06'1019.2
2017-Feb-19 09:33N 25°20' W 080°02'1919.3
2017-Feb-19 08:33N 25°39' W 079°59'1919.3
2017-Feb-19 07:33N 25°58' W 079°57'1918.7
2017-Feb-19 06:33N 26°17' W 079°56'1818.2
2017-Feb-19 05:33N 26°35' W 079°54'1616.0
2017-Feb-19 04:33N 26°51' W 079°54'1515.2
2017-Feb-19 03:33N 27°06' W 079°55'6817.0
2017-Feb-18 23:33N 28°11' W 080°19'1615.7
2017-Feb-18 22:33N 28°22' W 080°32'  
2017-Feb-15 20:33N 18°47' W 064°55'2120.8
2017-Feb-15 19:33N 18°35' W 064°37'1111.2
2017-Feb-15 18:33N 18°24' W 064°34'2 0.3
2017-Feb-15 10:28N 18°25' W 064°36'5 5.3
2017-Feb-15 09:33N 18°22' W 064°32'9 9.3
2017-Feb-15 08:33N 18°14' W 064°27'18 2.5
2017-Feb-15 01:25N 18°02' W 064°41'7 7.6
2017-Feb-15 00:33N 18°01' W 064°47'8 8.1
2017-Feb-14 23:32N 18°07' W 064°52'10 9.5
2017-Feb-14 22:32N 18°17' W 064°55'  

Dump ship's entire track history